sensor_id;sensor_type;location;lat;lon;timestamp;pressure;altitude;pressure_sealevel;temperature;humidity
52935;BME280;38802;50.198;19.796;2023-06-10T00:00:07;95922.10;;;15.58;93.72
52935;BME280;38802;50.198;19.796;2023-06-10T00:03:02;95926.83;;;15.55;93.67
52935;BME280;38802;50.198;19.796;2023-06-10T00:05:31;95927.46;;;15.52;93.80
52935;BME280;38802;50.198;19.796;2023-06-10T00:07:59;95929.33;;;15.49;93.99
52935;BME280;38802;50.198;19.796;2023-06-10T00:10:28;95924.27;;;15.47;93.86
52935;BME280;38802;50.198;19.796;2023-06-10T00:12:56;95928.64;;;15.46;93.97
52935;BME280;38802;50.198;19.796;2023-06-10T00:15:24;95926.94;;;15.47;94.06
52935;BME280;38802;50.198;19.796;2023-06-10T00:17:52;95929.55;;;15.47;94.21
52935;BME280;38802;50.198;19.796;2023-06-10T00:20:21;95928.09;;;15.45;94.36
52935;BME280;38802;50.198;19.796;2023-06-10T00:22:53;95930.64;;;15.42;94.20
52935;BME280;38802;50.198;19.796;2023-06-10T00:25:22;95933.59;;;15.40;94.26
52935;BME280;38802;50.198;19.796;2023-06-10T00:27:50;95936.09;;;15.40;94.80
52935;BME280;38802;50.198;19.796;2023-06-10T00:30:18;95937.47;;;15.38;94.82
52935;BME280;38802;50.198;19.796;2023-06-10T00:32:46;95936.91;;;15.38;94.47
52935;BME280;38802;50.198;19.796;2023-06-10T00:35:14;95940.55;;;15.39;94.74
52935;BME280;38802;50.198;19.796;2023-06-10T00:37:42;95940.09;;;15.42;95.00
52935;BME280;38802;50.198;19.796;2023-06-10T00:40:10;95937.93;;;15.43;95.51
52935;BME280;38802;50.198;19.796;2023-06-10T00:42:39;95935.43;;;15.39;95.23
52935;BME280;38802;50.198;19.796;2023-06-10T00:45:07;95935.14;;;15.39;95.44
52935;BME280;38802;50.198;19.796;2023-06-10T00:47:37;95937.47;;;15.38;95.43
52935;BME280;38802;50.198;19.796;2023-06-10T00:50:05;95940.98;;;15.37;95.18
52935;BME280;38802;50.198;19.796;2023-06-10T00:52:35;95941.54;;;15.38;95.45
52935;BME280;38802;50.198;19.796;2023-06-10T00:55:04;95945.31;;;15.37;95.45
52935;BME280;38802;50.198;19.796;2023-06-10T00:57:32;95949.25;;;15.36;95.27
52935;BME280;38802;50.198;19.796;2023-06-10T01:00:00;95952.49;;;15.35;95.38
52935;BME280;38802;50.198;19.796;2023-06-10T01:02:29;95953.91;;;15.35;95.75
52935;BME280;38802;50.198;19.796;2023-06-10T01:04:59;95954.00;;;15.34;95.86
52935;BME280;38802;50.198;19.796;2023-06-10T01:12:43;95951.80;;;15.32;96.18
52935;BME280;38802;50.198;19.796;2023-06-10T01:15:17;95954.27;;;15.30;95.86
52935;BME280;38802;50.198;19.796;2023-06-10T01:18:07;95948.04;;;15.31;96.22
52935;BME280;38802;50.198;19.796;2023-06-10T01:20:38;95952.20;;;15.32;96.14
52935;BME280;38802;50.198;19.796;2023-06-10T01:23:10;95951.11;;;15.35;96.32
52935;BME280;38802;50.198;19.796;2023-06-10T01:25:41;95949.15;;;15.36;96.63
52935;BME280;38802;50.198;19.796;2023-06-10T01:28:33;95950.80;;;15.35;96.53
52935;BME280;38802;50.198;19.796;2023-06-10T01:31:23;95950.36;;;15.37;96.71
52935;BME280;38802;50.198;19.796;2023-06-10T01:34:03;95950.54;;;15.37;96.50
52935;BME280;38802;50.198;19.796;2023-06-10T01:36:35;95952.52;;;15.38;96.74
52935;BME280;38802;50.198;19.796;2023-06-10T01:39:04;95953.39;;;15.40;96.37
52935;BME280;38802;50.198;19.796;2023-06-10T01:41:35;95950.21;;;15.42;96.68
52935;BME280;38802;50.198;19.796;2023-06-10T01:44:04;95950.34;;;15.43;96.62
52935;BME280;38802;50.198;19.796;2023-06-10T01:46:32;95951.26;;;15.44;96.78
52935;BME280;38802;50.198;19.796;2023-06-10T01:49:01;95951.55;;;15.44;96.59
52935;BME280;38802;50.198;19.796;2023-06-10T01:51:29;95951.13;;;15.47;96.76
52935;BME280;38802;50.198;19.796;2023-06-10T01:54:00;95953.45;;;15.46;96.90
52935;BME280;38802;50.198;19.796;2023-06-10T01:56:28;95956.80;;;15.46;96.66
52935;BME280;38802;50.198;19.796;2023-06-10T01:58:56;95955.98;;;15.46;96.68
52935;BME280;38802;50.198;19.796;2023-06-10T02:01:28;95958.34;;;15.45;96.49
52935;BME280;38802;50.198;19.796;2023-06-10T02:03:56;95955.33;;;15.44;96.36
52935;BME280;38802;50.198;19.796;2023-06-10T02:06:25;95952.27;;;15.44;96.64
52935;BME280;38802;50.198;19.796;2023-06-10T02:08:53;95958.51;;;15.42;96.72
52935;BME280;38802;50.198;19.796;2023-06-10T02:11:21;95956.84;;;15.39;96.46
52935;BME280;38802;50.198;19.796;2023-06-10T02:13:49;95950.77;;;15.38;97.02
52935;BME280;38802;50.198;19.796;2023-06-10T02:16:18;95953.13;;;15.36;96.96
52935;BME280;38802;50.198;19.796;2023-06-10T02:18:49;95949.35;;;15.34;96.77
52935;BME280;38802;50.198;19.796;2023-06-10T02:21:17;95948.56;;;15.33;96.97
52935;BME280;38802;50.198;19.796;2023-06-10T02:23:45;95945.21;;;15.32;96.93
52935;BME280;38802;50.198;19.796;2023-06-10T02:26:13;95945.84;;;15.31;97.14
52935;BME280;38802;50.198;19.796;2023-06-10T02:28:44;95942.98;;;15.28;97.00
52935;BME280;38802;50.198;19.796;2023-06-10T02:31:13;95946.74;;;15.27;96.77
52935;BME280;38802;50.198;19.796;2023-06-10T02:33:42;95950.95;;;15.25;97.06
52935;BME280;38802;50.198;19.796;2023-06-10T02:36:10;95951.24;;;15.26;97.29
52935;BME280;38802;50.198;19.796;2023-06-10T02:38:42;95951.47;;;15.24;97.25
52935;BME280;38802;50.198;19.796;2023-06-10T02:41:10;95954.88;;;15.24;97.03
52935;BME280;38802;50.198;19.796;2023-06-10T02:43:38;95954.91;;;15.26;97.51
52935;BME280;38802;50.198;19.796;2023-06-10T02:46:07;95953.34;;;15.26;97.48
52935;BME280;38802;50.198;19.796;2023-06-10T02:48:43;95955.38;;;15.26;97.37
52935;BME280;38802;50.198;19.796;2023-06-10T02:51:18;95954.39;;;15.26;97.82
52935;BME280;38802;50.198;19.796;2023-06-10T02:53:49;95952.71;;;15.25;97.91
52935;BME280;38802;50.198;19.796;2023-06-10T02:56:17;95950.52;;;15.25;97.99
52935;BME280;38802;50.198;19.796;2023-06-10T02:58:46;95949.99;;;15.25;97.97
52935;BME280;38802;50.198;19.796;2023-06-10T03:01:15;95947.83;;;15.24;98.12
52935;BME280;38802;50.198;19.796;2023-06-10T03:03:53;95952.23;;;15.23;98.59
52935;BME280;38802;50.198;19.796;2023-06-10T03:06:21;95955.61;;;15.19;97.94
52935;BME280;38802;50.198;19.796;2023-06-10T03:08:53;95957.20;;;15.19;98.29
52935;BME280;38802;50.198;19.796;2023-06-10T03:11:22;95957.33;;;15.18;98.56
52935;BME280;38802;50.198;19.796;2023-06-10T03:13:51;95956.91;;;15.15;98.52
52935;BME280;38802;50.198;19.796;2023-06-10T03:16:22;95960.15;;;15.15;98.69
52935;BME280;38802;50.198;19.796;2023-06-10T03:18:51;95965.80;;;15.16;98.57
52935;BME280;38802;50.198;19.796;2023-06-10T03:21:20;95966.68;;;15.16;98.60
52935;BME280;38802;50.198;19.796;2023-06-10T03:23:48;95967.91;;;15.17;98.30
52935;BME280;38802;50.198;19.796;2023-06-10T03:26:17;95969.90;;;15.20;98.45
52935;BME280;38802;50.198;19.796;2023-06-10T03:28:46;95973.19;;;15.20;98.37
52935;BME280;38802;50.198;19.796;2023-06-10T03:31:14;95976.63;;;15.21;98.51
52935;BME280;38802;50.198;19.796;2023-06-10T03:33:45;95979.81;;;15.22;98.45
52935;BME280;38802;50.198;19.796;2023-06-10T03:36:13;95980.83;;;15.23;98.66
52935;BME280;38802;50.198;19.796;2023-06-10T03:38:41;95982.24;;;15.23;98.45
52935;BME280;38802;50.198;19.796;2023-06-10T03:41:09;95987.40;;;15.23;98.44
52935;BME280;38802;50.198;19.796;2023-06-10T03:43:40;95984.89;;;15.22;98.51
52935;BME280;38802;50.198;19.796;2023-06-10T03:46:09;95989.46;;;15.22;98.47
52935;BME280;38802;50.198;19.796;2023-06-10T03:48:38;95987.52;;;15.22;98.54
52935;BME280;38802;50.198;19.796;2023-06-10T03:51:07;95986.96;;;15.21;98.65
52935;BME280;38802;50.198;19.796;2023-06-10T03:53:36;95989.59;;;15.19;98.48
52935;BME280;38802;50.198;19.796;2023-06-10T03:56:04;95990.32;;;15.17;98.60
52935;BME280;38802;50.198;19.796;2023-06-10T03:58:32;95987.34;;;15.15;98.33
52935;BME280;38802;50.198;19.796;2023-06-10T04:01:00;95987.41;;;15.13;98.29
52935;BME280;38802;50.198;19.796;2023-06-10T04:03:32;95991.94;;;15.13;98.43
52935;BME280;38802;50.198;19.796;2023-06-10T04:06:01;95998.59;;;15.12;98.16
52935;BME280;38802;50.198;19.796;2023-06-10T04:08:30;96000.10;;;15.12;98.18
52935;BME280;38802;50.198;19.796;2023-06-10T04:10:59;96000.73;;;15.14;98.11
52935;BME280;38802;50.198;19.796;2023-06-10T04:13:28;95996.55;;;15.16;98.19
52935;BME280;38802;50.198;19.796;2023-06-10T04:15:58;95998.05;;;15.15;98.09
52935;BME280;38802;50.198;19.796;2023-06-10T04:18:26;95996.20;;;15.16;98.14
52935;BME280;38802;50.198;19.796;2023-06-10T04:20:56;96000.92;;;15.13;97.87
52935;BME280;38802;50.198;19.796;2023-06-10T04:23:24;96003.35;;;15.11;97.99
52935;BME280;38802;50.198;19.796;2023-06-10T04:25:54;96009.19;;;15.11;98.00
52935;BME280;38802;50.198;19.796;2023-06-10T04:28:22;96007.12;;;15.12;97.87
52935;BME280;38802;50.198;19.796;2023-06-10T04:30:50;96005.00;;;15.16;98.03
52935;BME280;38802;50.198;19.796;2023-06-10T04:33:18;96004.18;;;15.15;98.03
52935;BME280;38802;50.198;19.796;2023-06-10T04:35:47;96006.27;;;15.17;97.90
52935;BME280;38802;50.198;19.796;2023-06-10T04:38:15;96007.60;;;15.19;97.95
52935;BME280;38802;50.198;19.796;2023-06-10T04:40:44;96004.23;;;15.21;97.78
52935;BME280;38802;50.198;19.796;2023-06-10T04:43:13;96009.42;;;15.24;97.61
52935;BME280;38802;50.198;19.796;2023-06-10T04:45:41;96008.60;;;15.28;97.69
52935;BME280;38802;50.198;19.796;2023-06-10T04:48:13;96014.39;;;15.33;97.63
52935;BME280;38802;50.198;19.796;2023-06-10T04:50:41;96013.90;;;15.35;97.68
52935;BME280;38802;50.198;19.796;2023-06-10T04:53:10;96019.06;;;15.42;97.68
52935;BME280;38802;50.198;19.796;2023-06-10T04:55:39;96020.09;;;15.47;97.69
52935;BME280;38802;50.198;19.796;2023-06-10T04:58:08;96022.69;;;15.52;97.46
52935;BME280;38802;50.198;19.796;2023-06-10T05:00:36;96024.36;;;15.58;97.62
52935;BME280;38802;50.198;19.796;2023-06-10T05:03:04;96024.90;;;15.66;97.56
52935;BME280;38802;50.198;19.796;2023-06-10T05:05:32;96026.39;;;15.74;97.38
52935;BME280;38802;50.198;19.796;2023-06-10T05:08:00;96027.48;;;15.80;97.26
52935;BME280;38802;50.198;19.796;2023-06-10T05:10:28;96029.31;;;15.87;97.13
52935;BME280;38802;50.198;19.796;2023-06-10T05:12:59;96030.30;;;15.94;97.19
52935;BME280;38802;50.198;19.796;2023-06-10T05:15:27;96032.30;;;15.98;96.78
52935;BME280;38802;50.198;19.796;2023-06-10T05:17:57;96033.77;;;16.01;96.76
52935;BME280;38802;50.198;19.796;2023-06-10T05:20:26;96034.40;;;16.06;96.63
52935;BME280;38802;50.198;19.796;2023-06-10T05:22:54;96038.17;;;16.10;96.38
52935;BME280;38802;50.198;19.796;2023-06-10T05:25:25;96036.66;;;16.09;96.08
52935;BME280;38802;50.198;19.796;2023-06-10T05:27:53;96037.94;;;16.08;96.08
52935;BME280;38802;50.198;19.796;2023-06-10T05:30:21;96041.33;;;16.08;95.65
52935;BME280;38802;50.198;19.796;2023-06-10T05:32:49;96041.58;;;16.04;95.42
52935;BME280;38802;50.198;19.796;2023-06-10T05:35:19;96042.21;;;16.02;95.42
52935;BME280;38802;50.198;19.796;2023-06-10T05:37:47;96044.39;;;16.01;95.32
52935;BME280;38802;50.198;19.796;2023-06-10T05:40:15;96049.11;;;16.02;95.31
52935;BME280;38802;50.198;19.796;2023-06-10T05:42:44;96050.48;;;16.04;95.23
52935;BME280;38802;50.198;19.796;2023-06-10T05:45:12;96047.17;;;16.07;95.19
52935;BME280;38802;50.198;19.796;2023-06-10T05:47:40;96051.08;;;16.10;95.05
52935;BME280;38802;50.198;19.796;2023-06-10T05:50:09;96054.05;;;16.10;94.90
52935;BME280;38802;50.198;19.796;2023-06-10T05:52:37;96059.50;;;16.09;94.59
52935;BME280;38802;50.198;19.796;2023-06-10T05:55:08;96063.23;;;16.04;94.39
52935;BME280;38802;50.198;19.796;2023-06-10T05:57:37;96063.11;;;15.98;94.52
52935;BME280;38802;50.198;19.796;2023-06-10T06:00:05;96059.77;;;15.99;94.59
52935;BME280;38802;50.198;19.796;2023-06-10T06:02:39;96059.89;;;15.99;94.56
52935;BME280;38802;50.198;19.796;2023-06-10T06:05:07;96064.09;;;16.01;94.55
52935;BME280;38802;50.198;19.796;2023-06-10T06:07:36;96061.63;;;16.05;94.62
52935;BME280;38802;50.198;19.796;2023-06-10T06:10:04;96065.78;;;16.12;94.70
52935;BME280;38802;50.198;19.796;2023-06-10T06:12:33;96066.13;;;16.23;94.69
52935;BME280;38802;50.198;19.796;2023-06-10T06:15:02;96068.22;;;16.34;94.59
52935;BME280;38802;50.198;19.796;2023-06-10T06:17:30;96063.61;;;16.43;94.45
52935;BME280;38802;50.198;19.796;2023-06-10T06:19:59;96062.36;;;16.53;94.02
52935;BME280;38802;50.198;19.796;2023-06-10T06:22:27;96065.41;;;16.69;93.79
52935;BME280;38802;50.198;19.796;2023-06-10T06:24:55;96059.13;;;16.98;93.40
52935;BME280;38802;50.198;19.796;2023-06-10T06:27:24;96063.40;;;17.24;93.03
52935;BME280;38802;50.198;19.796;2023-06-10T06:29:52;96061.40;;;17.43;92.44
52935;BME280;38802;50.198;19.796;2023-06-10T06:32:20;96066.70;;;17.53;91.46
52935;BME280;38802;50.198;19.796;2023-06-10T06:34:50;96067.02;;;17.61;91.16
52935;BME280;38802;50.198;19.796;2023-06-10T06:37:23;96067.73;;;17.66;91.15
52935;BME280;38802;50.198;19.796;2023-06-10T06:39:57;96069.23;;;17.70;91.17
52935;BME280;38802;50.198;19.796;2023-06-10T06:42:29;96072.40;;;17.70;91.11
52935;BME280;38802;50.198;19.796;2023-06-10T06:45:11;96074.51;;;17.76;90.90
52935;BME280;38802;50.198;19.796;2023-06-10T06:47:39;96083.64;;;17.74;90.01
52935;BME280;38802;50.198;19.796;2023-06-10T06:50:08;96090.44;;;17.66;89.69
52935;BME280;38802;50.198;19.796;2023-06-10T06:52:36;96096.79;;;17.57;89.70
52935;BME280;38802;50.198;19.796;2023-06-10T06:55:05;96094.91;;;17.46;89.33
52935;BME280;38802;50.198;19.796;2023-06-10T06:57:33;96103.13;;;17.40;89.70
52935;BME280;38802;50.198;19.796;2023-06-10T07:00:02;96104.59;;;17.33;89.24
52935;BME280;38802;50.198;19.796;2023-06-10T07:02:30;96107.14;;;17.27;89.23
52935;BME280;38802;50.198;19.796;2023-06-10T07:05:01;96108.48;;;17.22;89.38
52935;BME280;38802;50.198;19.796;2023-06-10T07:07:29;96109.41;;;17.20;89.46
52935;BME280;38802;50.198;19.796;2023-06-10T07:09:57;96110.00;;;17.19;89.69
52935;BME280;38802;50.198;19.796;2023-06-10T07:12:25;96110.06;;;17.22;89.47
52935;BME280;38802;50.198;19.796;2023-06-10T07:14:53;96116.15;;;17.21;89.50
52935;BME280;38802;50.198;19.796;2023-06-10T07:17:21;96117.54;;;17.19;89.44
52935;BME280;38802;50.198;19.796;2023-06-10T07:19:49;96119.99;;;17.16;89.53
52935;BME280;38802;50.198;19.796;2023-06-10T07:22:19;96123.11;;;17.16;88.93
52935;BME280;38802;50.198;19.796;2023-06-10T07:24:47;96120.66;;;17.13;88.81
52935;BME280;38802;50.198;19.796;2023-06-10T07:27:15;96122.73;;;17.12;88.57
52935;BME280;38802;50.198;19.796;2023-06-10T07:29:43;96120.56;;;17.13;88.97
52935;BME280;38802;50.198;19.796;2023-06-10T07:32:11;96120.86;;;17.21;89.02
52935;BME280;38802;50.198;19.796;2023-06-10T07:34:42;96120.50;;;17.32;88.95
52935;BME280;38802;50.198;19.796;2023-06-10T07:37:10;96121.30;;;17.43;88.60
52935;BME280;38802;50.198;19.796;2023-06-10T07:39:38;96113.52;;;17.52;88.55
52935;BME280;38802;50.198;19.796;2023-06-10T07:42:07;96115.13;;;17.68;88.26
52935;BME280;38802;50.198;19.796;2023-06-10T07:44:35;96111.78;;;17.88;88.22
52935;BME280;38802;50.198;19.796;2023-06-10T07:47:03;96109.23;;;18.09;87.78
52935;BME280;38802;50.198;19.796;2023-06-10T07:49:31;96110.86;;;18.24;87.15
52935;BME280;38802;50.198;19.796;2023-06-10T07:51:59;96115.52;;;18.35;87.13
52935;BME280;38802;50.198;19.796;2023-06-10T07:54:30;96114.35;;;18.48;86.39
52935;BME280;38802;50.198;19.796;2023-06-10T07:56:58;96114.34;;;18.58;84.92
52935;BME280;38802;50.198;19.796;2023-06-10T07:59:26;96117.54;;;18.63;85.17
52935;BME280;38802;50.198;19.796;2023-06-10T08:01:55;96118.27;;;18.68;85.33
52935;BME280;38802;50.198;19.796;2023-06-10T08:04:23;96119.83;;;18.80;85.00
52935;BME280;38802;50.198;19.796;2023-06-10T08:06:52;96117.03;;;19.01;84.96
52935;BME280;38802;50.198;19.796;2023-06-10T08:09:20;96120.29;;;19.16;85.28
52935;BME280;38802;50.198;19.796;2023-06-10T08:11:50;96118.58;;;19.29;84.01
52935;BME280;38802;50.198;19.796;2023-06-10T08:14:19;96119.39;;;19.47;83.41
52935;BME280;38802;50.198;19.796;2023-06-10T08:16:47;96119.73;;;19.65;82.20
52935;BME280;38802;50.198;19.796;2023-06-10T08:19:34;96116.08;;;19.87;81.93
52935;BME280;38802;50.198;19.796;2023-06-10T08:22:03;96115.35;;;19.91;80.30
52935;BME280;38802;50.198;19.796;2023-06-10T08:24:31;96113.14;;;19.96;80.91
52935;BME280;38802;50.198;19.796;2023-06-10T08:26:59;96108.11;;;20.08;79.79
52935;BME280;38802;50.198;19.796;2023-06-10T08:29:27;96105.29;;;20.24;80.51
52935;BME280;38802;50.198;19.796;2023-06-10T08:31:55;96106.20;;;20.51;80.31
52935;BME280;38802;50.198;19.796;2023-06-10T08:34:23;96110.66;;;20.79;79.19
52935;BME280;38802;50.198;19.796;2023-06-10T08:36:54;96110.89;;;20.99;77.13
52935;BME280;38802;50.198;19.796;2023-06-10T08:39:23;96113.65;;;21.04;76.61
52935;BME280;38802;50.198;19.796;2023-06-10T08:42:02;96117.87;;;21.09;76.45
52935;BME280;38802;50.198;19.796;2023-06-10T08:44:32;96115.38;;;21.22;76.47
52935;BME280;38802;50.198;19.796;2023-06-10T08:47:10;96119.04;;;21.31;76.09
52935;BME280;38802;50.198;19.796;2023-06-10T08:49:45;96123.86;;;21.24;76.06
52935;BME280;38802;50.198;19.796;2023-06-10T08:52:17;96123.09;;;21.09;75.58
52935;BME280;38802;50.198;19.796;2023-06-10T08:54:52;96134.14;;;20.90;76.02
52935;BME280;38802;50.198;19.796;2023-06-10T08:57:23;96133.20;;;20.66;74.92
52935;BME280;38802;50.198;19.796;2023-06-10T08:59:56;96131.52;;;20.51;76.26
52935;BME280;38802;50.198;19.796;2023-06-10T09:02:25;96133.88;;;20.50;76.75
52935;BME280;38802;50.198;19.796;2023-06-10T09:04:56;96132.35;;;20.52;76.94
52935;BME280;38802;50.198;19.796;2023-06-10T09:07:29;96134.16;;;20.53;76.98
52935;BME280;38802;50.198;19.796;2023-06-10T09:10:00;96133.86;;;20.49;76.75
52935;BME280;38802;50.198;19.796;2023-06-10T09:12:48;96131.50;;;20.33;76.95
52935;BME280;38802;50.198;19.796;2023-06-10T09:15:17;96131.80;;;20.25;76.94
52935;BME280;38802;50.198;19.796;2023-06-10T09:17:45;96136.38;;;20.18;77.15
52935;BME280;38802;50.198;19.796;2023-06-10T09:20:14;96132.06;;;20.19;77.31
52935;BME280;38802;50.198;19.796;2023-06-10T09:22:44;96132.92;;;20.14;77.43
52935;BME280;38802;50.198;19.796;2023-06-10T09:25:13;96128.17;;;20.07;77.31
52935;BME280;38802;50.198;19.796;2023-06-10T09:27:48;96131.64;;;20.00;77.38
52935;BME280;38802;50.198;19.796;2023-06-10T09:30:30;96137.73;;;20.03;77.76
52935;BME280;38802;50.198;19.796;2023-06-10T09:33:15;96127.97;;;20.29;77.66
52935;BME280;38802;50.198;19.796;2023-06-10T09:35:48;96133.05;;;20.54;77.27
52935;BME280;38802;50.198;19.796;2023-06-10T09:38:22;96134.89;;;20.74;76.52
52935;BME280;38802;50.198;19.796;2023-06-10T09:40:53;96133.04;;;20.78;76.32
52935;BME280;38802;50.198;19.796;2023-06-10T09:43:22;96132.58;;;20.84;76.47
52935;BME280;38802;50.198;19.796;2023-06-10T09:45:51;96131.38;;;20.98;76.44
52935;BME280;38802;50.198;19.796;2023-06-10T09:48:25;96126.27;;;21.15;76.39
52935;BME280;38802;50.198;19.796;2023-06-10T09:50:53;96130.27;;;21.22;75.05
52935;BME280;38802;50.198;19.796;2023-06-10T09:53:22;96129.60;;;21.20;75.06
52935;BME280;38802;50.198;19.796;2023-06-10T09:55:52;96133.45;;;21.16;75.27
52935;BME280;38802;50.198;19.796;2023-06-10T09:58:37;96132.36;;;21.19;75.24
52935;BME280;38802;50.198;19.796;2023-06-10T10:01:10;96140.25;;;21.23;74.87
52935;BME280;38802;50.198;19.796;2023-06-10T10:03:45;96140.98;;;21.21;75.05
52935;BME280;38802;50.198;19.796;2023-06-10T10:06:16;96140.92;;;21.17;74.36
52935;BME280;38802;50.198;19.796;2023-06-10T10:08:46;96143.50;;;21.12;74.47
52935;BME280;38802;50.198;19.796;2023-06-10T10:11:21;96139.33;;;21.05;74.15
52935;BME280;38802;50.198;19.796;2023-06-10T10:13:54;96137.41;;;20.99;73.91
52935;BME280;38802;50.198;19.796;2023-06-10T10:16:49;96142.64;;;20.88;73.53
52935;BME280;38802;50.198;19.796;2023-06-10T10:19:25;96143.73;;;20.73;74.12
52935;BME280;38802;50.198;19.796;2023-06-10T10:22:09;96143.39;;;20.78;74.35
52935;BME280;38802;50.198;19.796;2023-06-10T10:24:45;96148.05;;;20.74;74.40
52935;BME280;38802;50.198;19.796;2023-06-10T10:27:18;96146.90;;;20.68;74.32
52935;BME280;38802;50.198;19.796;2023-06-10T10:29:52;96147.52;;;20.65;74.44
52935;BME280;38802;50.198;19.796;2023-06-10T10:32:31;96144.08;;;20.67;74.33
52935;BME280;38802;50.198;19.796;2023-06-10T10:35:08;96149.91;;;20.63;74.13
52935;BME280;38802;50.198;19.796;2023-06-10T10:37:38;96145.92;;;20.58;74.68
52935;BME280;38802;50.198;19.796;2023-06-10T10:40:07;96152.61;;;20.69;74.99
52935;BME280;38802;50.198;19.796;2023-06-10T10:42:38;96154.91;;;20.84;74.35
52935;BME280;38802;50.198;19.796;2023-06-10T10:45:08;96151.88;;;20.93;74.30
52935;BME280;38802;50.198;19.796;2023-06-10T10:47:37;96153.23;;;20.98;73.75
52935;BME280;38802;50.198;19.796;2023-06-10T10:50:18;96152.15;;;21.01;74.00
52935;BME280;38802;50.198;19.796;2023-06-10T10:55:24;96150.35;;;20.85;73.29
52935;BME280;38802;50.198;19.796;2023-06-10T10:57:56;96144.67;;;20.74;73.42
52935;BME280;38802;50.198;19.796;2023-06-10T11:00:36;96144.90;;;20.67;73.63
52935;BME280;38802;50.198;19.796;2023-06-10T11:03:06;96147.52;;;20.65;73.94
52935;BME280;38802;50.198;19.796;2023-06-10T11:05:49;96146.06;;;20.56;73.51
52935;BME280;38802;50.198;19.796;2023-06-10T11:11:17;96151.11;;;20.27;73.68
52935;BME280;38802;50.198;19.796;2023-06-10T11:16:38;96149.53;;;20.27;74.15
52935;BME280;38802;50.198;19.796;2023-06-10T11:19:07;96143.26;;;20.47;74.54
52935;BME280;38802;50.198;19.796;2023-06-10T11:21:59;96146.90;;;20.68;73.63
52935;BME280;38802;50.198;19.796;2023-06-10T11:24:29;96141.08;;;20.63;73.70
52935;BME280;38802;50.198;19.796;2023-06-10T11:27:17;96140.93;;;20.61;73.40
52935;BME280;38802;50.198;19.796;2023-06-10T11:32:29;96136.17;;;20.61;73.38
52935;BME280;38802;50.198;19.796;2023-06-10T11:35:05;96136.98;;;20.56;73.14
52935;BME280;38802;50.198;19.796;2023-06-10T11:37:33;96137.76;;;20.56;73.49
52935;BME280;38802;50.198;19.796;2023-06-10T11:40:02;96136.08;;;20.55;73.36
52935;BME280;38802;50.198;19.796;2023-06-10T11:42:30;96135.45;;;20.58;73.36
52935;BME280;38802;50.198;19.796;2023-06-10T11:44:58;96134.81;;;20.59;73.16
52935;BME280;38802;50.198;19.796;2023-06-10T11:47:28;96136.52;;;20.53;72.39
52935;BME280;38802;50.198;19.796;2023-06-10T11:49:57;96135.09;;;20.45;72.70
52935;BME280;38802;50.198;19.796;2023-06-10T11:52:30;96137.00;;;20.49;72.58
52935;BME280;38802;50.198;19.796;2023-06-10T11:55:06;96137.63;;;20.45;72.88
52935;BME280;38802;50.198;19.796;2023-06-10T11:57:38;96141.95;;;20.47;72.69
52935;BME280;38802;50.198;19.796;2023-06-10T12:00:06;96141.14;;;20.43;72.55
52935;BME280;38802;50.198;19.796;2023-06-10T12:02:39;96144.77;;;20.32;72.55
52935;BME280;38802;50.198;19.796;2023-06-10T12:05:12;96147.54;;;20.19;72.78
52935;BME280;38802;50.198;19.796;2023-06-10T12:07:40;96150.41;;;20.13;72.95
52935;BME280;38802;50.198;19.796;2023-06-10T12:10:08;96148.63;;;20.06;73.01
52935;BME280;38802;50.198;19.796;2023-06-10T12:12:54;96149.95;;;20.01;73.11
52935;BME280;38802;50.198;19.796;2023-06-10T12:15:25;96149.20;;;19.91;73.35
52935;BME280;38802;50.198;19.796;2023-06-10T12:17:53;96148.16;;;19.85;73.48
52935;BME280;38802;50.198;19.796;2023-06-10T12:20:27;96141.23;;;19.74;73.53
52935;BME280;38802;50.198;19.796;2023-06-10T12:22:56;96140.80;;;19.64;73.81
52935;BME280;38802;50.198;19.796;2023-06-10T12:25:54;96135.89;;;19.62;73.97
52935;BME280;38802;50.198;19.796;2023-06-10T12:28:24;96137.99;;;19.67;74.45
52935;BME280;38802;50.198;19.796;2023-06-10T12:31:08;96133.20;;;19.82;74.57
52935;BME280;38802;50.198;19.796;2023-06-10T12:33:36;96132.25;;;20.01;74.61
52935;BME280;38802;50.198;19.796;2023-06-10T12:36:04;96129.80;;;20.17;74.28
52935;BME280;38802;50.198;19.796;2023-06-10T12:38:43;96128.55;;;20.30;73.94
52935;BME280;38802;50.198;19.796;2023-06-10T12:41:12;96129.44;;;20.46;73.29
52935;BME280;38802;50.198;19.796;2023-06-10T12:43:46;96130.63;;;20.60;73.33
52935;BME280;38802;50.198;19.796;2023-06-10T12:46:14;96134.79;;;20.78;71.97
52935;BME280;38802;50.198;19.796;2023-06-10T12:48:49;96128.14;;;20.82;71.84
52935;BME280;38802;50.198;19.796;2023-06-10T12:51:22;96129.47;;;20.87;71.31
52935;BME280;38802;50.198;19.796;2023-06-10T12:53:50;96123.03;;;20.86;71.51
52935;BME280;38802;50.198;19.796;2023-06-10T12:56:18;96127.29;;;20.77;71.40
52935;BME280;38802;50.198;19.796;2023-06-10T12:58:46;96124.67;;;20.70;71.38
52935;BME280;38802;50.198;19.796;2023-06-10T13:01:14;96124.38;;;20.69;71.71
52935;BME280;38802;50.198;19.796;2023-06-10T13:03:42;96126.58;;;20.70;71.05
52935;BME280;38802;50.198;19.796;2023-06-10T13:06:10;96127.66;;;20.56;71.05
52935;BME280;38802;50.198;19.796;2023-06-10T13:08:39;96123.69;;;20.44;71.12
52935;BME280;38802;50.198;19.796;2023-06-10T13:11:07;96119.11;;;20.35;71.51
52935;BME280;38802;50.198;19.796;2023-06-10T13:13:37;96121.90;;;20.36;71.72
52935;BME280;38802;50.198;19.796;2023-06-10T13:16:05;96119.60;;;20.40;72.05
52935;BME280;38802;50.198;19.796;2023-06-10T13:18:33;96121.05;;;20.44;72.10
52935;BME280;38802;50.198;19.796;2023-06-10T13:21:05;96121.51;;;20.46;72.11
52935;BME280;38802;50.198;19.796;2023-06-10T13:23:33;96117.58;;;20.44;72.13